Time;durP1;ratioP1;P1;durP2;ratioP2;P2;SDS_P1;SDS_P2;PMS_P1;PMS_P2;Temp;Humidity;BMP_temperature;BMP_pressure;BME280_temperature;BME280_humidity;BME280_pressure;Samples;Min_cycle;Max_cycle;Signal;HPM_P1;HPM_P2
2023/03/03 00:00:43;;;;;;;11.35;10.65;;;;;;;;;;4998344;28;20668;-51
2023/03/03 00:03:11;;;;;;;10.95;10.25;;;;;;;;;;4995560;28;20050;-50
2023/03/03 00:05:37;;;;;;;12.68;11.52;;;;;;;;;;4998569;28;20045;-48
2023/03/03 00:08:04;;;;;;;10.88;10.15;;;;;;;;;;4995059;28;20030;-48
2023/03/03 00:10:29;;;;;;;10.75;10.05;;;;;;;;;;4996514;28;20113;-47
2023/03/03 00:12:55;;;;;;;11.43;10.73;;;;;;;;;;4995551;28;20109;-46
2023/03/03 00:15:23;;;;;;;12.27;11.40;;;;;;;;;;4995242;28;20044;-46
2023/03/03 00:17:48;;;;;;;12.07;11.27;;;;;;;;;;4995145;28;20046;-48
2023/03/03 00:20:31;;;;;;;13.23;11.98;;;;;;;;;;4996687;28;20053;-51
2023/03/03 00:23:20;;;;;;;12.27;11.48;;;;;;;;;;4994879;28;20121;-51
2023/03/03 00:25:49;;;;;;;11.38;10.68;;;;;;;;;;4994573;28;20034;-50
2023/03/03 00:28:29;;;;;;;11.13;10.38;;;;;;;;;;4992931;28;20053;-51
2023/03/03 00:30:57;;;;;;;12.32;11.52;;;;;;;;;;4995505;28;20045;-48
2023/03/03 00:33:31;;;;;;;11.32;10.52;;;;;;;;;;4994671;28;20104;-49
2023/03/03 00:36:35;;;;;;;11.95;11.02;;;;;;;;;;4994867;28;20448;-49
2023/03/03 00:39:18;;;;;;;10.90;10.13;;;;;;;;;;4974176;28;20092;-49
2023/03/03 00:41:43;;;;;;;11.18;10.48;;;;;;;;;;4993917;28;20045;-49
2023/03/03 00:44:45;;;;;;;12.88;11.68;;;;;;;;;;4995936;28;20045;-48
2023/03/03 00:47:27;;;;;;;12.80;11.90;;;;;;;;;;4994774;28;20470;-50
2023/03/03 00:50:13;;;;;;;12.30;10.98;;;;;;;;;;4996702;28;20375;-46
2023/03/03 00:52:58;;;;;;;11.13;10.43;;;;;;;;;;4995423;28;20046;-45
2023/03/03 00:55:24;;;;;;;12.43;11.52;;;;;;;;;;4995567;28;20040;-45
2023/03/03 00:57:49;;;;;;;11.98;11.18;;;;;;;;;;4995196;28;20366;-49
2023/03/03 01:00:15;;;;;;;12.13;11.30;;;;;;;;;;4994574;28;20530;-53
2023/03/03 01:02:40;;;;;;;12.85;11.88;;;;;;;;;;4991368;28;20030;-48
2023/03/03 01:05:06;;;;;;;11.43;10.65;;;;;;;;;;4993544;28;20046;-48
2023/03/03 01:07:31;;;;;;;11.70;10.98;;;;;;;;;;4994813;28;20041;-48
2023/03/03 01:09:57;;;;;;;12.35;11.55;;;;;;;;;;4993108;28;20529;-46
2023/03/03 01:12:23;;;;;;;12.63;11.57;;;;;;;;;;4992794;28;20061;-50
2023/03/03 01:14:51;;;;;;;12.68;11.65;;;;;;;;;;4996303;28;20068;-49
2023/03/03 01:17:17;;;;;;;12.10;11.30;;;;;;;;;;4993441;28;20026;-50
2023/03/03 01:19:42;;;;;;;12.55;11.65;;;;;;;;;;4994101;28;20522;-51
2023/03/03 01:22:08;;;;;;;11.70;10.90;;;;;;;;;;4992139;28;20044;-49
2023/03/03 01:24:33;;;;;;;11.07;10.38;;;;;;;;;;4994063;28;20042;-50
2023/03/03 01:26:58;;;;;;;11.13;10.43;;;;;;;;;;4994585;28;20038;-50
2023/03/03 01:29:24;;;;;;;11.30;10.50;;;;;;;;;;4996425;28;20467;-49
2023/03/03 01:31:49;;;;;;;11.80;11.00;;;;;;;;;;4993256;28;20030;-48
2023/03/03 01:34:15;;;;;;;13.38;12.27;;;;;;;;;;4993145;28;20522;-48
2023/03/03 01:36:40;;;;;;;12.80;11.90;;;;;;;;;;4995641;28;20132;-49
2023/03/03 01:39:05;;;;;;;11.13;10.43;;;;;;;;;;4994237;28;20042;-47
2023/03/03 01:41:32;;;;;;;11.90;11.10;;;;;;;;;;4997120;28;20101;-51
2023/03/03 01:43:58;;;;;;;11.30;10.60;;;;;;;;;;4992331;28;20104;-49
2023/03/03 01:46:23;;;;;;;17.27;12.48;;;;;;;;;;4992336;28;20356;-49
2023/03/03 01:48:52;;;;;;;11.55;10.75;;;;;;;;;;4996015;28;20038;-48
2023/03/03 01:51:24;;;;;;;12.52;11.57;;;;;;;;;;4996669;28;20040;-49
2023/03/03 01:53:53;;;;;;;12.10;11.30;;;;;;;;;;4992960;28;20038;-52
2023/03/03 01:56:19;;;;;;;12.25;11.45;;;;;;;;;;5000853;28;20500;-51
2023/03/03 01:58:48;;;;;;;11.40;10.70;;;;;;;;;;4993848;28;20018;-51
2023/03/03 02:01:19;;;;;;;11.25;10.45;;;;;;;;;;4994072;28;20465;-51
2023/03/03 02:03:44;;;;;;;12.25;11.35;;;;;;;;;;4993362;28;20038;-52
2023/03/03 02:06:14;;;;;;;11.40;10.65;;;;;;;;;;4992128;28;20105;-50
2023/03/03 02:08:51;;;;;;;11.20;10.48;;;;;;;;;;4994882;28;20129;-51
2023/03/03 02:11:18;;;;;;;11.07;10.38;;;;;;;;;;4993906;28;20125;-51
2023/03/03 02:13:44;;;;;;;11.43;10.70;;;;;;;;;;4993659;28;20066;-51
2023/03/03 02:16:10;;;;;;;11.77;10.98;;;;;;;;;;4995831;28;20398;-51
2023/03/03 02:18:35;;;;;;;12.40;11.52;;;;;;;;;;4994785;28;20428;-50
2023/03/03 02:21:04;;;;;;;11.25;10.52;;;;;;;;;;4995802;28;20137;-48
2023/03/03 02:23:44;;;;;;;11.93;11.13;;;;;;;;;;4995081;28;20056;-50
2023/03/03 02:26:15;;;;;;;11.75;10.95;;;;;;;;;;4994988;28;20100;-52
2023/03/03 02:28:41;;;;;;;11.77;10.98;;;;;;;;;;5007255;28;20042;-51
2023/03/03 02:31:16;;;;;;;11.70;10.90;;;;;;;;;;4996232;28;20045;-47
2023/03/03 02:33:44;;;;;;;11.82;11.02;;;;;;;;;;4999266;28;20036;-48
2023/03/03 02:36:35;;;;;;;10.63;9.93;;;;;;;;;;4998523;28;20049;-48
2023/03/03 02:39:12;;;;;;;12.50;11.32;;;;;;;;;;4997503;28;20034;-47
2023/03/03 02:41:43;;;;;;;9.75;9.13;;;;;;;;;;4998230;28;20075;-51
2023/03/03 02:44:16;;;;;;;10.30;9.60;;;;;;;;;;4994640;28;20333;-48
2023/03/03 02:46:44;;;;;;;10.55;9.75;;;;;;;;;;4997285;28;20460;-51
2023/03/03 02:49:12;;;;;;;10.27;9.57;;;;;;;;;;5001841;28;20041;-49
2023/03/03 02:51:38;;;;;;;10.50;9.80;;;;;;;;;;4994570;28;20044;-51
2023/03/03 02:54:04;;;;;;;10.93;10.13;;;;;;;;;;4996301;28;20034;-51
2023/03/03 02:56:30;;;;;;;11.82;10.85;;;;;;;;;;5000221;28;20030;-49
2023/03/03 02:58:55;;;;;;;10.90;10.10;;;;;;;;;;4995766;28;20346;-51
2023/03/03 03:01:22;;;;;;;9.27;8.68;;;;;;;;;;4998193;28;20072;-49
2023/03/03 03:03:47;;;;;;;10.85;10.02;;;;;;;;;;4999259;28;20049;-50
2023/03/03 03:06:13;;;;;;;10.93;9.88;;;;;;;;;;5000891;28;20030;-52
2023/03/03 03:08:39;;;;;;;10.75;9.95;;;;;;;;;;4997222;28;20145;-50
2023/03/03 03:11:07;;;;;;;11.57;10.68;;;;;;;;;;4994365;28;20097;-52
2023/03/03 03:13:32;;;;;;;11.98;10.85;;;;;;;;;;4996525;28;20092;-50
2023/03/03 03:15:59;;;;;;;17.40;12.38;;;;;;;;;;4988604;28;20456;-51
2023/03/03 03:18:25;;;;;;;12.07;11.18;;;;;;;;;;4995018;28;20444;-51
2023/03/03 03:20:51;;;;;;;12.25;11.32;;;;;;;;;;4995068;28;20050;-50
2023/03/03 03:23:16;;;;;;;11.55;10.60;;;;;;;;;;4995200;28;20034;-49
2023/03/03 03:25:45;;;;;;;12.50;11.50;;;;;;;;;;4996647;28;20031;-49
2023/03/03 03:28:16;;;;;;;11.75;10.75;;;;;;;;;;4995185;28;20033;-48
2023/03/03 03:30:43;;;;;;;11.68;10.85;;;;;;;;;;4997375;28;20030;-48
2023/03/03 03:33:09;;;;;;;10.45;9.75;;;;;;;;;;4995381;28;20038;-50
2023/03/03 03:35:35;;;;;;;11.32;10.43;;;;;;;;;;4995755;28;20030;-48
2023/03/03 03:38:01;;;;;;;9.90;9.20;;;;;;;;;;4994090;28;20038;-50
2023/03/03 03:40:27;;;;;;;12.18;11.38;;;;;;;;;;4997622;28;20400;-50
2023/03/03 03:42:53;;;;;;;11.98;10.98;;;;;;;;;;4988241;28;20049;-50
2023/03/03 03:45:18;;;;;;;12.82;11.00;;;;;;;;;;4995301;28;20070;-49
2023/03/03 03:47:44;;;;;;;11.50;10.60;;;;;;;;;;4994618;28;20042;-51
2023/03/03 03:50:10;;;;;;;13.18;11.80;;;;;;;;;;4995992;28;20068;-49
2023/03/03 03:52:35;;;;;;;13.75;12.30;;;;;;;;;;4995190;28;20598;-48
2023/03/03 03:55:01;;;;;;;11.75;10.75;;;;;;;;;;4993379;28;20467;-50
2023/03/03 03:57:26;;;;;;;16.92;11.07;;;;;;;;;;4997527;28;20034;-48
2023/03/03 03:59:51;;;;;;;11.50;10.60;;;;;;;;;;4992612;28;20041;-49
2023/03/03 04:02:17;;;;;;;11.13;10.32;;;;;;;;;;4994980;28;20037;-51
2023/03/03 04:04:42;;;;;;;10.73;10.00;;;;;;;;;;4997417;28;20144;-48
2023/03/03 04:07:08;;;;;;;12.02;10.98;;;;;;;;;;4995689;28;20233;-50
2023/03/03 04:09:33;;;;;;;11.80;10.70;;;;;;;;;;4998387;28;20044;-47
2023/03/03 04:11:59;;;;;;;11.57;10.68;;;;;;;;;;4992840;28;20483;-49
2023/03/03 04:14:25;;;;;;;11.60;10.80;;;;;;;;;;4994430;28;20120;-50
2023/03/03 04:16:50;;;;;;;13.13;12.23;;;;;;;;;;4997652;28;20100;-49
2023/03/03 04:19:15;;;;;;;12.32;11.43;;;;;;;;;;4994994;28;20144;-49
2023/03/03 04:21:41;;;;;;;12.05;11.07;;;;;;;;;;4998236;28;20042;-52
2023/03/03 04:24:06;;;;;;;13.18;12.07;;;;;;;;;;4997851;28;20053;-49
2023/03/03 04:26:32;;;;;;;14.05;12.82;;;;;;;;;;4991719;28;20038;-46
2023/03/03 04:28:57;;;;;;;13.70;12.52;;;;;;;;;;4993936;28;20084;-47
2023/03/03 04:31:24;;;;;;;12.07;11.18;;;;;;;;;;4992904;28;20058;-47
2023/03/03 04:33:50;;;;;;;11.15;10.35;;;;;;;;;;4994298;28;20043;-47
2023/03/03 04:36:16;;;;;;;12.30;9.98;;;;;;;;;;4994094;28;20041;-48
2023/03/03 04:38:42;;;;;;;12.98;11.88;;;;;;;;;;4992274;28;20042;-48
2023/03/03 04:41:07;;;;;;;12.02;11.23;;;;;;;;;;4994223;28;20038;-49
2023/03/03 04:43:32;;;;;;;13.93;12.80;;;;;;;;;;4994595;28;20088;-48
2023/03/03 04:45:58;;;;;;;11.75;10.90;;;;;;;;;;4994767;28;20081;-48
2023/03/03 04:48:23;;;;;;;13.80;12.57;;;;;;;;;;4996874;28;20030;-47
2023/03/03 04:50:48;;;;;;;11.10;10.35;;;;;;;;;;4993504;28;20038;-50
2023/03/03 04:53:14;;;;;;;13.27;12.05;;;;;;;;;;4991927;28;20077;-47
2023/03/03 04:55:39;;;;;;;10.73;9.93;;;;;;;;;;4996405;28;20030;-49
2023/03/03 04:58:05;;;;;;;15.60;11.15;;;;;;;;;;4995164;28;20030;-51
2023/03/03 05:00:31;;;;;;;11.88;11.07;;;;;;;;;;4992062;28;20064;-51
2023/03/03 05:02:56;;;;;;;12.38;11.15;;;;;;;;;;4994686;28;20385;-49
2023/03/03 05:05:22;;;;;;;12.57;11.68;;;;;;;;;;4992180;28;20041;-48
2023/03/03 05:07:47;;;;;;;12.65;11.75;;;;;;;;;;4993160;28;20037;-49
2023/03/03 05:10:13;;;;;;;14.10;12.95;;;;;;;;;;4991724;28;20121;-48
2023/03/03 05:12:38;;;;;;;11.75;10.85;;;;;;;;;;4993940;28;20348;-50
2023/03/03 05:15:04;;;;;;;13.00;11.77;;;;;;;;;;4995122;28;20068;-47
2023/03/03 05:17:30;;;;;;;13.18;11.98;;;;;;;;;;4997211;28;20053;-47
2023/03/03 05:19:56;;;;;;;13.15;12.23;;;;;;;;;;4993958;28;20038;-49
2023/03/03 05:22:22;;;;;;;13.30;12.20;;;;;;;;;;4996997;28;20049;-48
2023/03/03 05:24:48;;;;;;;12.65;11.80;;;;;;;;;;4992868;28;20634;-47
2023/03/03 05:27:14;;;;;;;11.88;10.98;;;;;;;;;;4994328;28;20038;-52
2023/03/03 05:29:40;;;;;;;12.00;11.10;;;;;;;;;;4993937;28;20141;-48
2023/03/03 05:32:05;;;;;;;11.68;10.88;;;;;;;;;;4994133;28;20568;-48
2023/03/03 05:34:31;;;;;;;12.63;11.63;;;;;;;;;;4995170;28;20419;-49
2023/03/03 05:36:56;;;;;;;12.82;11.55;;;;;;;;;;4993965;28;20080;-55
2023/03/03 05:39:22;;;;;;;13.10;12.10;;;;;;;;;;4994409;28;20030;-56
2023/03/03 05:41:47;;;;;;;11.57;10.65;;;;;;;;;;4993534;28;20662;-54
2023/03/03 05:44:13;;;;;;;12.43;11.48;;;;;;;;;;4993361;28;20682;-55
2023/03/03 05:46:38;;;;;;;13.23;12.18;;;;;;;;;;4990114;28;20042;-55
2023/03/03 05:49:04;;;;;;;12.73;11.55;;;;;;;;;;4991861;28;20494;-55
2023/03/03 05:51:29;;;;;;;13.05;12.05;;;;;;;;;;4992555;28;20069;-52
2023/03/03 05:53:54;;;;;;;16.50;15.05;;;;;;;;;;4995302;28;20030;-55
2023/03/03 05:56:20;;;;;;;13.32;12.23;;;;;;;;;;4997973;28;20034;-54
2023/03/03 05:58:45;;;;;;;11.55;10.75;;;;;;;;;;4996128;28;20113;-55
2023/03/03 06:01:11;;;;;;;12.20;11.30;;;;;;;;;;4997405;28;20034;-54
2023/03/03 06:03:36;;;;;;;15.52;14.15;;;;;;;;;;5006917;28;20614;-52
2023/03/03 06:06:02;;;;;;;13.27;12.27;;;;;;;;;;4988088;28;20034;-52
2023/03/03 06:08:28;;;;;;;12.20;11.18;;;;;;;;;;4997251;28;20065;-54
2023/03/03 06:10:53;;;;;;;13.18;12.18;;;;;;;;;;4996569;28;20159;-54
2023/03/03 06:13:19;;;;;;;13.57;12.55;;;;;;;;;;4995935;28;20092;-51
2023/03/03 06:15:44;;;;;;;11.77;10.98;;;;;;;;;;4998512;28;20037;-51
2023/03/03 06:18:10;;;;;;;13.00;12.05;;;;;;;;;;4994594;28;20030;-53
2023/03/03 06:20:35;;;;;;;12.15;11.25;;;;;;;;;;4995391;28;20475;-53
2023/03/03 06:23:01;;;;;;;12.77;11.77;;;;;;;;;;4998093;28;20357;-53
2023/03/03 06:25:26;;;;;;;14.93;13.73;;;;;;;;;;4994967;28;20038;-54
2023/03/03 06:27:52;;;;;;;14.57;13.38;;;;;;;;;;4996141;28;20046;-54
2023/03/03 06:30:17;;;;;;;16.10;14.77;;;;;;;;;;4997040;28;20037;-52
2023/03/03 06:32:43;;;;;;;13.05;12.00;;;;;;;;;;4995736;28;20836;-53
2023/03/03 06:35:09;;;;;;;12.93;12.02;;;;;;;;;;4994828;28;20041;-54
2023/03/03 06:37:34;;;;;;;13.05;11.95;;;;;;;;;;4995077;28;20083;-49
2023/03/03 06:40:00;;;;;;;14.10;13.10;;;;;;;;;;4996714;28;20858;-52
2023/03/03 06:42:25;;;;;;;15.18;14.07;;;;;;;;;;4995948;28;20038;-51
2023/03/03 06:44:50;;;;;;;12.70;11.80;;;;;;;;;;4997323;28;20109;-49
2023/03/03 06:47:16;;;;;;;14.05;12.82;;;;;;;;;;4996598;28;20120;-47
2023/03/03 06:49:41;;;;;;;15.18;13.93;;;;;;;;;;4997840;28;20121;-47
2023/03/03 06:52:18;;;;;;;16.27;14.70;;;;;;;;;;4996932;28;20049;-49
2023/03/03 06:54:43;;;;;;;12.82;11.93;;;;;;;;;;4997194;28;20034;-47
2023/03/03 06:57:35;;;;;;;14.02;12.88;;;;;;;;;;4994230;28;20044;-51
2023/03/03 07:00:16;;;;;;;14.30;13.10;;;;;;;;;;4994768;28;20108;-48
2023/03/03 07:02:42;;;;;;;14.85;12.88;;;;;;;;;;4994543;28;20038;-51
2023/03/03 07:05:16;;;;;;;14.70;13.60;;;;;;;;;;4995878;28;20580;-48
2023/03/03 07:07:41;;;;;;;15.25;14.07;;;;;;;;;;4994493;28;20030;-47
2023/03/03 07:10:33;;;;;;;15.80;13.75;;;;;;;;;;4996087;28;20781;-50
2023/03/03 07:13:25;;;;;;;15.05;13.63;;;;;;;;;;4994077;28;20615;-48
2023/03/03 07:15:55;;;;;;;13.10;12.20;;;;;;;;;;4994005;28;20133;-50
2023/03/03 07:18:53;;;;;;;13.60;12.37;;;;;;;;;;4999444;28;20065;-49
2023/03/03 07:21:32;;;;;;;17.70;14.68;;;;;;;;;;4989423;28;20336;-49
2023/03/03 07:24:00;;;;;;;13.98;12.95;;;;;;;;;;4996845;28;20034;-51
2023/03/03 07:26:29;;;;;;;13.10;12.10;;;;;;;;;;4994454;28;20034;-52
2023/03/03 07:29:15;;;;;;;15.50;14.30;;;;;;;;;;4997703;28;20531;-47
2023/03/03 07:31:46;;;;;;;14.05;12.85;;;;;;;;;;4997699;28;20037;-47
2023/03/03 07:34:22;;;;;;;14.30;13.02;;;;;;;;;;4995958;28;20145;-48
2023/03/03 07:36:56;;;;;;;14.52;13.43;;;;;;;;;;4996163;28;20052;-50
2023/03/03 07:39:28;;;;;;;13.23;12.13;;;;;;;;;;4995254;28;20067;-50
2023/03/03 07:42:08;;;;;;;14.13;13.13;;;;;;;;;;4996986;28;20070;-48
2023/03/03 07:44:36;;;;;;;12.77;11.88;;;;;;;;;;4993676;28;20960;-52
2023/03/03 07:47:38;;;;;;;16.20;14.55;;;;;;;;;;4991929;28;20038;-50
2023/03/03 07:50:17;;;;;;;13.00;11.52;;;;;;;;;;4992505;28;20038;-47
2023/03/03 07:52:55;;;;;;;14.23;13.23;;;;;;;;;;4997576;28;20160;-52
2023/03/03 07:55:36;;;;;;;13.73;12.55;;;;;;;;;;4994579;28;20108;-48
2023/03/03 07:58:19;;;;;;;14.60;13.53;;;;;;;;;;4990769;28;20242;-50
2023/03/03 08:01:16;;;;;;;13.30;12.30;;;;;;;;;;4980848;28;20030;-51
2023/03/03 08:03:45;;;;;;;14.15;13.00;;;;;;;;;;4994124;28;20026;-48
2023/03/03 08:06:41;;;;;;;14.50;13.00;;;;;;;;;;4993251;28;20082;-49
2023/03/03 08:09:09;;;;;;;13.35;12.35;;;;;;;;;;4995239;28;20053;-51
2023/03/03 08:11:46;;;;;;;13.55;12.50;;;;;;;;;;4995737;28;20038;-48
2023/03/03 08:14:15;;;;;;;15.13;13.73;;;;;;;;;;4999149;28;20134;-51
2023/03/03 08:16:40;;;;;;;14.07;13.07;;;;;;;;;;4995223;28;20064;-49
2023/03/03 08:19:06;;;;;;;13.70;12.45;;;;;;;;;;4994543;28;20091;-50
2023/03/03 08:21:34;;;;;;;13.48;12.38;;;;;;;;;;4994447;28;20068;-48
2023/03/03 08:23:59;;;;;;;14.93;13.43;;;;;;;;;;4996012;28;20474;-47
2023/03/03 08:26:26;;;;;;;14.07;13.07;;;;;;;;;;4995156;28;20030;-49
2023/03/03 08:28:52;;;;;;;14.98;13.82;;;;;;;;;;4997289;28;20116;-52
2023/03/03 08:31:18;;;;;;;12.45;11.40;;;;;;;;;;4998184;28;20092;-48
2023/03/03 08:33:44;;;;;;;14.13;12.98;;;;;;;;;;4994572;28;20038;-50
2023/03/03 08:36:10;;;;;;;14.30;13.23;;;;;;;;;;4994982;28;20088;-49
2023/03/03 08:38:36;;;;;;;15.20;14.15;;;;;;;;;;4991520;28;20424;-50
2023/03/03 08:41:02;;;;;;;13.82;12.82;;;;;;;;;;4992245;28;20038;-52
2023/03/03 08:43:28;;;;;;;16.27;15.02;;;;;;;;;;4993996;28;20149;-48
2023/03/03 08:45:58;;;;;;;17.23;15.82;;;;;;;;;;4994051;28;20137;-49
2023/03/03 08:48:24;;;;;;;17.52;16.33;;;;;;;;;;4985201;28;20048;-49
2023/03/03 08:50:50;;;;;;;17.85;16.55;;;;;;;;;;4993718;28;20420;-47
2023/03/03 08:53:17;;;;;;;19.00;17.67;;;;;;;;;;4993108;28;20065;-46
2023/03/03 08:55:43;;;;;;;16.83;15.57;;;;;;;;;;4993484;28;20049;-48
2023/03/03 08:58:09;;;;;;;15.77;14.77;;;;;;;;;;4996057;28;20472;-49
2023/03/03 09:00:34;;;;;;;17.42;15.82;;;;;;;;;;4989166;28;20647;-51
2023/03/03 09:02:59;;;;;;;15.32;14.23;;;;;;;;;;4993526;28;20044;-48
2023/03/03 09:05:26;;;;;;;17.35;16.15;;;;;;;;;;4993677;28;20117;-48
2023/03/03 09:07:52;;;;;;;18.40;17.08;;;;;;;;;;4990965;28;20049;-48
2023/03/03 09:10:26;;;;;;;20.92;16.95;;;;;;;;;;4990838;28;20113;-48
2023/03/03 09:12:52;;;;;;;16.77;15.57;;;;;;;;;;4992474;28;20639;-48
2023/03/03 09:15:25;;;;;;;19.33;17.45;;;;;;;;;;4992121;28;20072;-47
2023/03/03 09:17:50;;;;;;;17.15;15.95;;;;;;;;;;4993217;28;20081;-50
2023/03/03 09:20:38;;;;;;;18.20;16.73;;;;;;;;;;4993256;28;20126;-48
2023/03/03 09:23:22;;;;;;;16.52;15.13;;;;;;;;;;4992173;28;20049;-51
2023/03/03 09:25:49;;;;;;;17.38;15.88;;;;;;;;;;4993503;28;20390;-49
2023/03/03 09:28:30;;;;;;;14.95;13.95;;;;;;;;;;4992900;28;20048;-50
2023/03/03 09:30:59;;;;;;;13.88;12.85;;;;;;;;;;4993726;28;20053;-51
2023/03/03 09:33:39;;;;;;;17.33;15.98;;;;;;;;;;4994134;28;20112;-52
2023/03/03 09:36:20;;;;;;;14.23;13.13;;;;;;;;;;4994737;28;20459;-48
2023/03/03 09:38:46;;;;;;;15.88;14.65;;;;;;;;;;4992864;28;20053;-50
2023/03/03 09:41:22;;;;;;;14.73;13.77;;;;;;;;;;4994884;28;20038;-48
2023/03/03 09:44:03;;;;;;;17.65;16.13;;;;;;;;;;4994539;28;20696;-51
2023/03/03 09:46:28;;;;;;;16.98;15.65;;;;;;;;;;4998387;28;20053;-51
2023/03/03 09:49:15;;;;;;;17.23;16.08;;;;;;;;;;4994225;28;20097;-49
2023/03/03 09:52:02;;;;;;;14.98;14.00;;;;;;;;;;4991015;28;20885;-51
2023/03/03 09:54:55;;;;;;;14.73;13.63;;;;;;;;;;4992816;28;20042;-50
2023/03/03 09:57:49;;;;;;;14.50;13.40;;;;;;;;;;4990909;28;20053;-49
2023/03/03 10:00:38;;;;;;;14.25;13.15;;;;;;;;;;4994238;28;20053;-51
2023/03/03 10:03:22;;;;;;;14.10;13.07;;;;;;;;;;4991726;28;20038;-50
2023/03/03 10:05:57;;;;;;;13.13;12.13;;;;;;;;;;4993671;28;20084;-50
2023/03/03 10:09:07;;;;;;;13.00;12.10;;;;;;;;;;4994857;28;20044;-50
2023/03/03 10:11:56;;;;;;;13.32;12.32;;;;;;;;;;4991252;28;20049;-51
2023/03/03 10:14:57;;;;;;;14.38;13.20;;;;;;;;;;4991944;28;20034;-48
2023/03/03 10:17:49;;;;;;;13.93;12.93;;;;;;;;;;4991886;28;20363;-51
2023/03/03 10:20:17;;;;;;;13.95;12.77;;;;;;;;;;4998361;28;20490;-47
2023/03/03 10:22:49;;;;;;;12.93;12.07;;;;;;;;;;4991387;28;20498;-47
2023/03/03 10:25:35;;;;;;;13.73;12.77;;;;;;;;;;4993439;28;20061;-47
2023/03/03 10:28:19;;;;;;;14.05;12.75;;;;;;;;;;4992367;28;20034;-51
2023/03/03 10:31:10;;;;;;;12.63;11.73;;;;;;;;;;4992181;28;20121;-48
2023/03/03 10:33:54;;;;;;;13.73;12.50;;;;;;;;;;4991826;28;20059;-51
2023/03/03 10:36:31;;;;;;;14.25;11.98;;;;;;;;;;4992524;28;20361;-50
2023/03/03 10:39:18;;;;;;;15.65;14.57;;;;;;;;;;4999373;28;20042;-51
2023/03/03 10:41:58;;;;;;;12.80;11.93;;;;;;;;;;4996263;28;20149;-48
2023/03/03 10:44:55;;;;;;;13.50;12.57;;;;;;;;;;4995190;28;20096;-48
2023/03/03 10:47:53;;;;;;;14.00;13.00;;;;;;;;;;4996520;28;20049;-52
2023/03/03 10:50:43;;;;;;;13.82;12.68;;;;;;;;;;4994804;28;20096;-48
2023/03/03 10:53:24;;;;;;;14.10;12.85;;;;;;;;;;4995845;28;20817;-50
2023/03/03 10:55:57;;;;;;;13.05;12.15;;;;;;;;;;4995346;28;20034;-48
2023/03/03 10:58:29;;;;;;;14.60;13.60;;;;;;;;;;4997141;28;20099;-50
2023/03/03 11:01:03;;;;;;;12.95;11.95;;;;;;;;;;4999559;28;20483;-48
2023/03/03 11:03:32;;;;;;;13.65;12.55;;;;;;;;;;5002009;28;20045;-49
2023/03/03 11:05:59;;;;;;;13.30;12.32;;;;;;;;;;4994713;28;20037;-52
2023/03/03 11:08:44;;;;;;;13.45;12.48;;;;;;;;;;4995212;28;20105;-52
2023/03/03 11:11:13;;;;;;;13.77;12.80;;;;;;;;;;4995109;28;20100;-51
2023/03/03 11:13:50;;;;;;;13.50;12.50;;;;;;;;;;4994173;28;20038;-51
2023/03/03 11:16:39;;;;;;;12.88;11.90;;;;;;;;;;4995615;28;20035;-48
2023/03/03 11:19:17;;;;;;;12.82;11.93;;;;;;;;;;4996122;28;20030;-48
2023/03/03 11:22:32;;;;;;;14.10;13.10;;;;;;;;;;4995892;28;20034;-49
2023/03/03 11:25:15;;;;;;;12.57;11.57;;;;;;;;;;4965905;28;20130;-51
2023/03/03 11:28:05;;;;;;;13.00;12.00;;;;;;;;;;4992960;28;20163;-52
2023/03/03 11:30:40;;;;;;;13.00;12.20;;;;;;;;;;4995644;28;20042;-51
2023/03/03 11:33:11;;;;;;;12.75;11.85;;;;;;;;;;4995982;28;20288;-52
2023/03/03 11:36:07;;;;;;;13.88;12.95;;;;;;;;;;5003412;28;20108;-50
2023/03/03 11:38:51;;;;;;;13.27;12.32;;;;;;;;;;4996721;28;20033;-50
2023/03/03 11:41:27;;;;;;;12.98;11.88;;;;;;;;;;4998510;28;20380;-52
2023/03/03 11:44:03;;;;;;;14.23;13.13;;;;;;;;;;4994969;28;20483;-51
2023/03/03 11:46:50;;;;;;;15.00;13.77;;;;;;;;;;4993860;28;20042;-51
2023/03/03 11:49:26;;;;;;;16.35;15.13;;;;;;;;;;4996597;28;20420;-49
2023/03/03 11:52:15;;;;;;;15.40;14.25;;;;;;;;;;4994762;28;20040;-48
2023/03/03 11:54:53;;;;;;;14.27;13.48;;;;;;;;;;4994313;28;20491;-47
2023/03/03 11:57:35;;;;;;;15.35;14.35;;;;;;;;;;4994745;28;20057;-52
2023/03/03 12:00:14;;;;;;;14.63;13.73;;;;;;;;;;4994056;28;20117;-49
2023/03/03 12:02:54;;;;;;;15.13;14.13;;;;;;;;;;4993302;28;20522;-49
2023/03/03 12:05:38;;;;;;;14.90;13.70;;;;;;;;;;4991258;28;20057;-51
2023/03/03 12:08:59;;;;;;;16.20;15.13;;;;;;;;;;4993307;28;20038;-51
2023/03/03 12:11:55;;;;;;;15.80;14.85;;;;;;;;;;4982961;28;20053;-50
2023/03/03 12:14:45;;;;;;;14.90;13.85;;;;;;;;;;4994476;28;20042;-50
2023/03/03 12:17:42;;;;;;;12.52;11.70;;;;;;;;;;4993191;28;20055;-51
2023/03/03 12:20:07;;;;;;;14.63;13.65;;;;;;;;;;4992281;28;20046;-52
2023/03/03 12:23:00;;;;;;;15.15;14.00;;;;;;;;;;4993844;28;20057;-52
2023/03/03 12:25:53;;;;;;;12.82;11.93;;;;;;;;;;4992866;28;20076;-52
2023/03/03 12:28:35;;;;;;;15.45;13.98;;;;;;;;;;4992944;28;20570;-48
2023/03/03 12:31:21;;;;;;;14.23;13.40;;;;;;;;;;4994100;28;20125;-50
2023/03/03 12:34:05;;;;;;;14.02;13.13;;;;;;;;;;4992178;28;20066;-49
2023/03/03 12:36:40;;;;;;;13.27;12.05;;;;;;;;;;4992178;28;20042;-51
2023/03/03 12:39:41;;;;;;;14.63;13.73;;;;;;;;;;4995201;28;20458;-52
2023/03/03 12:42:17;;;;;;;;;;;;;;;;;;5001473;28;20108;-53
2023/03/03 12:44:59;;;;;;;14.55;13.65;;;;;;;;;;4993653;28;19914;-53
2023/03/03 12:47:32;;;;;;;15.45;14.15;;;;;;;;;;4991765;28;20053;-52
2023/03/03 12:50:04;;;;;;;18.38;17.25;;;;;;;;;;4992080;28;20038;-51
2023/03/03 12:52:42;;;;;;;16.40;15.20;;;;;;;;;;4992956;28;20041;-52
2023/03/03 12:55:16;;;;;;;16.08;15.05;;;;;;;;;;4996070;28;20034;-53
2023/03/03 12:57:57;;;;;;;16.63;15.52;;;;;;;;;;4995109;28;20057;-52
2023/03/03 13:00:48;;;;;;;16.98;15.70;;;;;;;;;;4992639;28;20034;-54
2023/03/03 13:03:37;;;;;;;17.27;16.17;;;;;;;;;;4992990;28;20034;-52
2023/03/03 13:06:19;;;;;;;16.08;14.88;;;;;;;;;;4993268;28;20534;-53
2023/03/03 13:09:07;;;;;;;16.55;15.45;;;;;;;;;;4992497;28;20048;-49
2023/03/03 13:11:50;;;;;;;18.80;17.35;;;;;;;;;;4994897;28;20567;-49
2023/03/03 13:14:38;;;;;;;16.67;15.32;;;;;;;;;;4993528;28;20045;-53
2023/03/03 13:17:29;;;;;;;17.30;16.17;;;;;;;;;;4990132;28;20037;-51
2023/03/03 13:20:00;;;;;;;17.90;16.73;;;;;;;;;;4992330;28;20126;-51
2023/03/03 13:22:52;;;;;;;16.48;15.48;;;;;;;;;;4993447;28;20029;-51
2023/03/03 13:25:43;;;;;;;17.70;16.63;;;;;;;;;;4993815;28;20042;-50
2023/03/03 13:28:32;;;;;;;17.00;15.88;;;;;;;;;;4992762;28;20067;-53
2023/03/03 13:31:10;;;;;;;16.05;15.05;;;;;;;;;;4993396;28;20095;-50
2023/03/03 13:33:36;;;;;;;16.25;15.18;;;;;;;;;;4990825;28;20446;-52
2023/03/03 13:36:07;;;;;;;16.85;15.77;;;;;;;;;;4990422;28;20041;-51
2023/03/03 13:38:39;;;;;;;14.82;13.93;;;;;;;;;;4989867;28;20030;-53
2023/03/03 13:41:20;;;;;;;17.55;16.45;;;;;;;;;;4992128;28;20113;-52
2023/03/03 13:43:50;;;;;;;15.63;14.65;;;;;;;;;;4991487;28;20042;-51
2023/03/03 13:46:31;;;;;;;17.60;16.40;;;;;;;;;;4992125;28;20515;-51
2023/03/03 13:48:59;;;;;;;15.02;14.10;;;;;;;;;;4995706;28;20113;-51
2023/03/03 13:51:47;;;;;;;16.80;15.63;;;;;;;;;;5000472;28;20152;-50
2023/03/03 13:54:21;;;;;;;16.30;15.20;;;;;;;;;;4993333;28;20061;-52
2023/03/03 13:57:21;;;;;;;15.35;14.43;;;;;;;;;;4989884;28;20030;-51
2023/03/03 13:59:52;;;;;;;16.55;15.55;;;;;;;;;;4992337;28;20341;-50
2023/03/03 14:02:36;;;;;;;;;;;;;;;;;;4995106;28;20038;-52
2023/03/03 14:05:26;;;;;;;14.88;13.98;;;;;;;;;;4990877;28;19960;-53
2023/03/03 14:07:58;;;;;;;14.48;13.57;;;;;;;;;;4991460;28;20038;-52
2023/03/03 14:10:30;;;;;;;17.83;16.52;;;;;;;;;;4998001;28;20042;-50
2023/03/03 14:13:09;;;;;;;18.23;17.02;;;;;;;;;;4994420;28;20030;-52
2023/03/03 14:16:03;;;;;;;16.60;15.60;;;;;;;;;;4996306;28;20782;-52
2023/03/03 14:18:34;;;;;;;16.33;15.23;;;;;;;;;;4994901;28;20042;-50
2023/03/03 14:21:28;;;;;;;16.35;15.35;;;;;;;;;;4997345;28;20034;-50
2023/03/03 14:24:18;;;;;;;16.67;15.68;;;;;;;;;;4998344;28;20046;-49
2023/03/03 14:26:46;;;;;;;17.65;16.23;;;;;;;;;;4993151;28;20049;-49
2023/03/03 14:29:27;;;;;;;17.77;16.48;;;;;;;;;;4993794;28;20476;-49
2023/03/03 14:31:54;;;;;;;15.05;14.13;;;;;;;;;;4979702;28;20132;-49
2023/03/03 14:34:22;;;;;;;19.63;18.25;;;;;;;;;;4981237;28;20092;-50
2023/03/03 14:36:50;;;;;;;20.92;19.52;;;;;;;;;;4994408;28;20037;-51
2023/03/03 14:39:36;;;;;;;18.98;17.67;;;;;;;;;;4996436;28;20062;-51
2023/03/03 14:42:11;;;;;;;18.58;17.35;;;;;;;;;;4996141;28;20456;-50
2023/03/03 14:44:52;;;;;;;20.85;19.48;;;;;;;;;;4993832;28;20117;-51
2023/03/03 14:47:21;;;;;;;19.70;18.00;;;;;;;;;;4996473;28;20045;-49
2023/03/03 14:49:46;;;;;;;19.88;18.50;;;;;;;;;;4999731;28;20132;-51
2023/03/03 14:52:14;;;;;;;20.80;19.30;;;;;;;;;;4993804;28;20104;-48
2023/03/03 14:54:42;;;;;;;19.65;18.30;;;;;;;;;;4995849;28;20341;-52